createdAt,value
2023-02-23T09:21:55.195Z,64.10
2023-02-23T09:26:57.881Z,93.00
2023-02-23T09:32:00.360Z,93.00
2023-02-23T09:37:03.571Z,92.90
2023-02-23T09:42:32.212Z,91.90
2023-02-23T09:47:55.755Z,92.30
2023-02-23T09:53:40.882Z,92.20
2023-02-23T09:58:43.450Z,91.80
2023-02-23T10:04:36.062Z,90.80
2023-02-23T10:10:28.174Z,89.10
2023-02-23T10:16:22.166Z,86.20
2023-02-23T10:21:45.478Z,85.50
2023-02-23T10:27:00.884Z,82.70
2023-02-23T10:32:15.209Z,83.30
2023-02-23T10:37:20.044Z,82.70
2023-02-23T10:42:32.082Z,84.40
2023-02-23T10:47:36.613Z,84.50
2023-02-23T10:52:49.129Z,83.90
2023-02-23T10:58:08.398Z,83.50
2023-02-23T11:03:25.504Z,83.50
2023-02-23T11:08:34.603Z,81.30
2023-02-23T11:13:49.824Z,79.40
2023-02-23T11:19:04.990Z,80.00
2023-02-23T11:24:31.070Z,79.80
2023-02-23T11:29:46.957Z,77.50
2023-02-23T11:35:21.176Z,78.70
2023-02-23T11:40:31.883Z,78.20
2023-02-23T11:45:46.188Z,78.90
2023-02-23T11:50:50.516Z,78.50
2023-02-23T11:55:58.050Z,77.70
2023-02-23T12:01:17.331Z,75.20
2023-02-23T12:06:39.234Z,75.40
2023-02-23T12:11:48.777Z,74.40
2023-02-23T12:17:00.392Z,74.70
2023-02-23T12:22:29.585Z,75.40
2023-02-23T12:27:45.308Z,75.40
2023-02-23T12:33:21.699Z,75.20
2023-02-23T12:38:59.830Z,74.70
2023-02-23T12:44:37.976Z,76.40
2023-02-23T12:50:14.525Z,76.80
2023-02-23T12:55:30.056Z,75.90
2023-02-23T13:00:58.438Z,75.30
2023-02-23T13:06:23.586Z,75.00
2023-02-23T13:11:53.473Z,74.50
2023-02-23T13:17:33.103Z,75.20
2023-02-23T13:22:43.463Z,75.40
2023-02-23T13:27:55.364Z,76.50
2023-02-23T13:32:58.394Z,76.80
2023-02-23T13:38:32.305Z,77.20
2023-02-23T13:43:49.710Z,78.10
2023-02-23T13:49:28.575Z,79.20
2023-02-23T13:54:36.644Z,80.80
2023-02-23T13:59:45.648Z,79.80
2023-02-23T14:04:48.017Z,79.70
2023-02-23T14:10:06.709Z,79.80
2023-02-23T14:15:40.669Z,80.30
2023-02-23T14:20:53.179Z,80.30
2023-02-23T14:26:28.801Z,80.60
2023-02-23T14:31:31.997Z,80.70
2023-02-23T14:36:38.551Z,80.50
2023-02-23T14:41:51.480Z,81.40
2023-02-23T14:47:08.552Z,80.90
2023-02-23T14:52:36.144Z,80.10
2023-02-23T14:57:43.942Z,78.90
2023-02-23T15:03:05.805Z,80.10
2023-02-23T15:08:17.346Z,79.10
2023-02-23T15:18:44.280Z,78.70
2023-02-23T15:23:51.148Z,79.60
2023-02-23T15:28:53.774Z,79.20
2023-02-23T15:33:57.798Z,79.50
2023-02-23T15:39:05.233Z,80.60
2023-02-23T15:44:27.526Z,81.60
2023-02-23T15:49:37.981Z,82.50
2023-02-23T15:55:06.507Z,82.80
2023-02-23T16:00:32.743Z,82.90
2023-02-23T16:05:46.971Z,83.60
2023-02-23T16:10:57.751Z,84.30
2023-02-23T16:16:00.232Z,83.90
2023-02-23T16:21:04.865Z,84.50
2023-02-23T16:26:57.492Z,85.10
2023-02-23T16:32:04.134Z,85.10
2023-02-23T16:37:28.013Z,84.60
2023-02-23T16:42:36.030Z,84.90
2023-02-23T16:47:49.997Z,85.30
2023-02-23T16:52:53.497Z,84.90
2023-02-23T16:58:02.646Z,86.40
2023-02-23T17:03:16.464Z,86.60
2023-02-23T17:08:26.155Z,86.70
2023-02-23T17:13:33.290Z,86.50
2023-02-23T17:18:39.589Z,86.90
2023-02-23T17:23:48.380Z,88.60
2023-02-23T17:28:51.874Z,88.20
2023-02-23T17:33:55.389Z,88.60
2023-02-23T17:39:00.436Z,88.50
2023-02-23T17:44:05.786Z,88.60
2023-02-23T17:49:07.860Z,88.60
2023-02-23T17:54:10.962Z,88.90
2023-02-23T17:59:13.487Z,88.90
2023-02-23T18:04:16.653Z,88.70
2023-02-23T18:09:18.798Z,89.80
2023-02-23T18:14:20.881Z,90.30
2023-02-23T18:19:23.774Z,90.40
2023-02-23T20:05:49.460Z,91.90
2023-02-23T20:31:35.185Z,95.20
2023-02-23T20:36:37.750Z,96.50
2023-02-23T20:41:43.471Z,95.60
2023-02-23T20:46:45.732Z,95.90
2023-02-23T20:51:48.696Z,95.50
2023-02-23T20:56:58.935Z,96.60
2023-02-23T21:02:01.838Z,96.40
2023-02-23T21:07:36.666Z,96.00
2023-02-23T21:12:38.797Z,96.60
2023-02-23T21:17:42.306Z,95.90
2023-02-23T21:27:48.256Z,95.40
2023-02-23T21:32:53.233Z,94.90
2023-02-23T21:37:56.913Z,95.60
2023-02-23T21:43:00.568Z,95.60
2023-02-23T21:48:04.487Z,95.30
2023-02-23T21:53:07.712Z,95.00
2023-02-23T21:58:10.119Z,95.00
2023-02-23T22:03:12.618Z,94.90
2023-02-23T22:08:15.907Z,95.20
2023-02-23T22:13:18.090Z,95.50
2023-02-23T22:18:20.193Z,96.30
2023-02-23T22:23:22.389Z,96.20
2023-02-23T22:28:25.991Z,95.70
2023-02-23T22:33:28.061Z,95.50
2023-02-23T22:38:30.868Z,95.40
2023-02-23T22:43:34.401Z,95.10
2023-02-23T22:48:36.766Z,95.10
2023-02-23T22:53:39.672Z,95.70
2023-02-23T22:58:42.424Z,95.40
2023-02-23T23:03:46.695Z,95.50
2023-02-23T23:08:55.739Z,95.40
2023-02-23T23:14:03.253Z,95.20
2023-02-23T23:19:12.444Z,95.20
2023-02-23T23:24:15.674Z,96.10
